Time;durP1;ratioP1;P1;durP2;ratioP2;P2;SDS_P1;SDS_P2;PMS_P1;PMS_P2;Temp;Humidity;BMP_temperature;BMP_pressure;BME280_temperature;BME280_humidity;BME280_pressure;Samples;Min_cycle;Max_cycle;Signal;HPM_P1;HPM_P2
2023/09/11 00:02:41;;;;;;;6.27;4.70;;;;;;;22.28;62.58;96702.50;10421861;28;20057;-25
2023/09/11 00:07:41;;;;;;;7.47;5.53;;;;;;;22.29;62.69;96700.78;10432801;28;20063;-26
2023/09/11 00:12:41;;;;;;;7.07;5.07;;;;;;;22.26;62.63;96694.03;10438442;28;20048;-25
2023/09/11 00:17:43;;;;;;;5.83;4.40;;;;;;;22.25;62.49;96697.44;10431492;28;20029;-25
2023/09/11 00:22:43;;;;;;;5.97;4.68;;;;;;;22.25;62.59;96691.50;10437421;28;20033;-26
2023/09/11 00:27:43;;;;;;;4.90;4.33;;;;;;;22.23;62.44;96680.47;10429565;28;20515;-26
2023/09/11 00:32:44;;;;;;;5.77;3.90;;;;;;;22.24;62.45;96675.34;10432729;28;20294;-25
2023/09/11 00:37:45;;;;;;;5.23;4.47;;;;;;;22.24;62.52;96670.22;10429516;28;20108;-25
2023/09/11 00:42:45;;;;;;;6.60;4.57;;;;;;;22.25;62.45;96671.09;10427070;28;20041;-25
2023/09/11 00:47:47;;;;;;;5.60;4.20;;;;;;;22.22;62.38;96669.41;10429791;28;20395;-26
2023/09/11 00:52:48;;;;;;;5.15;3.92;;;;;;;22.23;62.29;96658.34;10423026;28;20033;-28
2023/09/11 00:57:50;;;;;;;7.15;3.55;;;;;;;22.23;62.33;96660.06;10432584;28;20431;-26
2023/09/11 01:02:50;;;;;;;5.05;4.15;;;;;;;22.22;62.44;96656.66;10427765;28;20069;-26
2023/09/11 01:07:51;;;;;;;5.40;3.50;;;;;;;22.23;62.35;96657.53;10424541;28;20503;-26
2023/09/11 01:12:51;;;;;;;5.87;3.43;;;;;;;22.17;62.27;96643.16;10415061;28;20368;-26
2023/09/11 01:18:02;;;;;;;2.88;2.60;;;;;;;22.21;62.32;96654.13;10426217;28;20523;-26
2023/09/11 01:23:42;;;;;;;4.35;2.70;;;;;;;22.23;62.39;96648.16;10436010;28;20048;-26
2023/09/11 01:29:15;;;;;;;5.15;4.35;;;;;;;22.22;62.09;96641.38;10414003;28;20041;-25
2023/09/11 01:34:18;;;;;;;6.57;4.85;;;;;;;22.23;62.31;96657.53;10415660;28;20068;-26
2023/09/11 01:39:19;;;;;;;6.93;6.22;;;;;;;22.22;62.25;96654.13;10427005;28;20025;-26
2023/09/11 01:44:41;;;;;;;6.22;5.63;;;;;;;22.24;62.08;96649.81;10423224;28;20032;-26
2023/09/11 01:49:44;;;;;;;5.90;5.30;;;;;;;22.23;62.08;96653.25;10413646;28;20415;-26
2023/09/11 01:54:44;;;;;;;8.38;5.68;;;;;;;22.23;62.06;96647.31;10423684;28;20043;-26
2023/09/11 01:59:45;;;;;;;5.80;5.22;;;;;;;22.22;62.16;96648.19;10412018;28;20034;-26
2023/09/11 02:04:45;;;;;;;4.30;3.90;;;;;;;22.21;62.16;96644.78;10419601;28;20041;-25
2023/09/11 02:09:46;;;;;;;5.03;2.30;;;;;;;22.21;62.18;96644.78;10416938;28;20041;-25
2023/09/11 02:14:46;;;;;;;3.73;2.80;;;;;;;22.20;62.03;96647.34;10420715;28;20055;-32
2023/09/11 02:19:46;;;;;;;3.20;2.80;;;;;;;22.19;62.05;96651.63;10422112;28;20049;-26
2023/09/11 02:24:47;;;;;;;3.60;2.23;;;;;;;22.19;62.08;96646.53;10423599;28;20040;-26
2023/09/11 02:29:47;;;;;;;4.10;2.23;;;;;;;22.19;62.22;96636.31;10422406;28;20099;-25
2023/09/11 02:34:48;;;;;;;2.00;1.90;;;;;;;22.19;62.08;96645.66;10417119;28;20098;-26
2023/09/11 02:39:50;;;;;;;3.42;3.13;;;;;;;22.18;62.06;96642.28;10422691;28;20037;-26
2023/09/11 02:44:51;;;;;;;4.07;2.58;;;;;;;22.18;61.95;96639.75;10427120;28;20041;-26
2023/09/11 02:49:51;;;;;;;3.03;1.83;;;;;;;22.17;61.74;96640.63;10423451;28;20454;-26
2023/09/11 02:54:54;;;;;;;3.57;2.80;;;;;;;22.18;61.99;96649.94;10415000;28;20507;-25
2023/09/11 02:59:55;;;;;;;3.55;2.00;;;;;;;22.18;61.99;96649.94;10408468;28;20044;-26
2023/09/11 03:04:55;;;;;;;2.10;1.90;;;;;;;22.17;61.90;96642.31;10416177;28;20398;-26
2023/09/11 03:09:56;;;;;;;3.42;2.63;;;;;;;22.18;61.99;96638.88;10417782;28;20036;-26
2023/09/11 03:15:03;;;;;;;3.13;2.10;;;;;;;22.19;62.39;96636.31;10426246;28;20021;-26
2023/09/11 03:20:07;;;;;;;6.47;3.38;;;;;;;22.18;62.00;96629.53;10419664;28;20086;-26
2023/09/11 03:25:08;;;;;;;5.13;4.20;;;;;;;22.18;62.06;96629.53;10431947;28;20037;-26
2023/09/11 03:30:08;;;;;;;6.55;4.55;;;;;;;22.18;61.95;96632.09;10432288;28;20030;-26
2023/09/11 03:35:09;;;;;;;5.07;4.13;;;;;;;22.19;61.91;96631.22;10435565;28;20037;-26
2023/09/11 03:40:16;;;;;;;4.45;3.58;;;;;;;22.17;61.78;96622.75;10425407;28;20030;-26
2023/09/11 03:45:17;;;;;;;2.30;2.10;;;;;;;22.17;62.06;96620.22;10418544;28;20044;-26
2023/09/11 03:50:17;;;;;;;1.92;1.83;;;;;;;22.21;61.80;96623.53;10418871;28;20033;-27
2023/09/11 03:55:18;;;;;;;2.60;2.40;;;;;;;22.23;61.74;96622.66;10420765;28;20075;-26
2023/09/11 04:00:18;;;;;;;4.35;3.95;;;;;;;22.27;61.69;96616.66;10415704;28;20787;-26
2023/09/11 04:05:18;;;;;;;3.20;2.10;;;;;;;22.25;61.69;96605.63;10421305;28;20518;-26
2023/09/11 04:10:19;;;;;;;7.47;5.63;;;;;;;22.34;62.94;96619.94;10417207;28;20291;-25
2023/09/11 04:15:19;;;;;;;9.97;5.60;;;;;;;22.23;61.79;96612.44;10425208;28;20810;-26
2023/09/11 04:20:20;;;;;;;6.68;5.03;;;;;;;22.27;61.19;96619.19;10415864;28;20051;-26
2023/09/11 04:25:21;;;;;;;7.70;6.72;;;;;;;22.27;60.75;96614.09;10413445;28;20116;-26
2023/09/11 04:30:23;;;;;;;8.00;6.40;;;;;;;22.18;60.86;96606.59;10441595;28;20030;-26
2023/09/11 04:35:23;;;;;;;7.75;5.88;;;;;;;22.18;60.51;96614.25;10422328;28;20495;-26
2023/09/11 04:40:25;;;;;;;9.60;6.07;;;;;;;22.17;60.44;96615.13;10438567;28;20475;-25
2023/09/11 04:45:26;;;;;;;5.78;5.03;;;;;;;22.15;60.91;96619.38;10425567;28;20033;-26
2023/09/11 04:50:27;;;;;;;6.85;5.70;;;;;;;22.30;59.96;96608.09;10414404;28;20487;-26
2023/09/11 04:55:27;;;;;;;10.27;5.60;;;;;;;22.34;59.57;96609.72;10419341;28;20033;-26
2023/09/11 05:00:29;;;;;;;10.45;6.07;;;;;;;22.38;59.20;96607.09;10413848;28;20026;-26
2023/09/11 05:05:30;;;;;;;7.65;5.65;;;;;;;22.37;59.41;96614.75;10420401;28;20029;-25
2023/09/11 05:10:31;;;;;;;8.52;5.60;;;;;;;22.40;58.88;96610.44;10416839;28;20025;-26
2023/09/11 05:15:32;;;;;;;8.82;6.10;;;;;;;22.43;58.08;96613.00;10419794;28;20029;-26
2023/09/11 05:20:33;;;;;;;6.45;5.72;;;;;;;22.40;58.25;96615.56;10417984;28;21428;-26
2023/09/11 05:25:34;;;;;;;6.90;5.22;;;;;;;22.31;59.39;96604.69;10416484;28;20398;-26
2023/09/11 05:30:34;;;;;;;6.80;5.50;;;;;;;22.23;58.00;96612.44;10412542;28;20045;-26
2023/09/11 05:35:35;;;;;;;14.77;5.80;;;;;;;22.07;58.49;96608.44;10419561;28;20032;-26
2023/09/11 05:40:35;;;;;;;8.30;5.73;;;;;;;22.23;58.89;96620.09;10434209;28;20283;-26
2023/09/11 05:45:36;;;;;;;7.17;5.77;;;;;;;22.29;59.04;96621.69;10417935;28;20044;-26
2023/09/11 05:50:36;;;;;;;8.25;5.72;;;;;;;22.34;59.05;96620.78;10413390;28;20327;-27
2023/09/11 05:55:37;;;;;;;9.15;5.82;;;;;;;22.29;59.34;96617.44;10426952;28;20029;-25
2023/09/11 06:00:37;;;;;;;7.00;6.13;;;;;;;22.32;59.37;96625.03;10431235;28;20033;-26
2023/09/11 06:05:39;;;;;;;9.77;5.47;;;;;;;22.28;59.39;96614.91;10422070;28;20044;-26
2023/09/11 06:10:40;;;;;;;7.20;5.65;;;;;;;22.35;59.45;96612.25;10437920;28;20502;-27
2023/09/11 06:15:40;;;;;;;12.23;5.93;;;;;;;22.21;60.25;96616.72;10418266;28;20040;-27
2023/09/11 06:20:41;;;;;;;8.33;5.20;;;;;;;22.21;60.26;96611.63;10426783;28;20032;-26
2023/09/11 06:25:41;;;;;;;7.07;5.20;;;;;;;22.20;60.46;96612.50;10420600;28;20074;-26
2023/09/11 06:30:42;;;;;;;8.97;5.27;;;;;;;22.21;60.55;96614.19;10432132;28;20266;-27
2023/09/11 06:35:42;;;;;;;13.18;5.82;;;;;;;22.21;60.79;96613.31;10426557;28;20049;-26
2023/09/11 06:40:44;;;;;;;13.77;6.30;;;;;;;22.15;60.70;96603.25;10417161;28;20095;-26
2023/09/11 06:45:44;;;;;;;8.63;5.18;;;;;;;22.20;60.88;96621.84;10412295;28;20538;-26
2023/09/11 06:50:44;;;;;;;7.60;5.20;;;;;;;22.18;60.93;96619.34;10422120;28;20033;-26
2023/09/11 06:55:46;;;;;;;6.90;5.13;;;;;;;22.17;60.83;96615.13;10425215;28;20035;-26
2023/09/11 07:00:46;;;;;;;6.95;4.70;;;;;;;22.17;60.86;96607.47;10427732;28;20287;-27
2023/09/11 07:05:51;;;;;;;9.10;4.63;;;;;;;22.18;61.08;96606.59;10416429;28;20048;-26
2023/09/11 07:10:51;;;;;;;6.82;4.65;;;;;;;22.17;61.10;96597.25;10420923;28;20292;-26
2023/09/11 07:15:59;;;;;;;7.38;5.05;;;;;;;22.18;60.77;96604.03;10417117;28;20030;-26
2023/09/11 07:21:00;;;;;;;8.60;5.35;;;;;;;22.18;61.06;96604.03;10423952;28;20109;-26
2023/09/11 07:26:00;;;;;;;4.60;4.10;;;;;;;22.19;61.08;96609.97;10409112;28;20025;-26
2023/09/11 07:31:00;;;;;;;5.93;4.53;;;;;;;22.18;61.26;96611.69;10409030;28;20480;-26
2023/09/11 07:36:01;;;;;;;5.80;4.40;;;;;;;22.18;61.36;96611.69;10425489;28;20566;-27
2023/09/11 07:41:01;;;;;;;4.75;4.30;;;;;;;22.18;61.26;96610.84;10409083;28;20280;-26
2023/09/11 07:46:02;;;;;;;5.33;4.83;;;;;;;22.18;61.25;96608.28;10415133;28;20071;-26
2023/09/11 07:51:02;;;;;;;7.83;4.37;;;;;;;22.16;61.35;96608.31;10422782;28;20500;-25
2023/09/11 07:56:07;;;;;;;4.45;4.05;;;;;;;22.17;61.20;96610.00;10421695;28;20487;-26
2023/09/11 08:01:07;;;;;;;4.38;4.00;;;;;;;22.17;61.35;96602.38;10412569;28;20083;-27
2023/09/11 08:06:08;;;;;;;4.40;3.88;;;;;;;22.16;61.34;96605.75;10416466;28;20156;-26
2023/09/11 08:11:15;;;;;;;5.00;4.17;;;;;;;22.18;61.25;96603.19;10420763;28;20029;-26
2023/09/11 08:16:16;;;;;;;4.70;4.18;;;;;;;22.16;61.60;96600.66;10429335;28;20400;-26
2023/09/11 08:21:19;;;;;;;3.65;3.35;;;;;;;22.16;61.28;96600.66;10421273;28;20029;-27
2023/09/11 08:26:19;;;;;;;5.32;4.10;;;;;;;22.16;61.77;96595.56;10429220;28;20032;-26
2023/09/11 08:31:20;;;;;;;4.63;4.22;;;;;;;22.17;61.37;96602.38;10432691;28;20044;-26
2023/09/11 08:36:21;;;;;;;4.10;3.70;;;;;;;22.16;61.46;96602.38;10423844;28;20033;-26
2023/09/11 08:41:23;;;;;;;4.13;3.72;;;;;;;22.16;61.40;96600.66;10430680;28;20029;-27
2023/09/11 08:46:30;;;;;;;4.40;3.53;;;;;;;22.16;61.34;96600.66;10416448;28;20037;-26
2023/09/11 08:51:39;;;;;;;5.05;3.97;;;;;;;22.16;61.56;96600.66;10428171;28;20136;-26
2023/09/11 08:56:40;;;;;;;5.05;3.60;;;;;;;22.17;61.43;96597.25;10419745;28;20496;-26
2023/09/11 09:01:41;;;;;;;4.07;3.65;;;;;;;22.13;61.49;96593.06;10430442;28;20037;-26
2023/09/11 09:06:45;;;;;;;3.60;3.30;;;;;;;22.16;61.58;96590.44;10426392;28;20518;-26
2023/09/11 09:11:48;;;;;;;4.10;3.80;;;;;;;22.17;61.43;96591.31;10413727;28;20533;-26
2023/09/11 09:16:48;;;;;;;3.90;3.60;;;;;;;22.17;61.46;96594.72;10415248;28;20103;-26
2023/09/11 09:22:01;;;;;;;3.80;3.50;;;;;;;22.16;61.58;96595.56;10423885;28;20091;-26
2023/09/11 09:27:05;;;;;;;4.00;3.70;;;;;;;22.17;61.62;96592.16;10423740;28;20385;-26
2023/09/11 09:32:08;;;;;;;5.55;4.10;;;;;;;22.18;61.60;96585.34;10419636;28;20029;-26
2023/09/11 09:37:16;;;;;;;3.53;3.33;;;;;;;22.17;61.75;96581.97;10426616;28;20032;-26
2023/09/11 09:42:17;;;;;;;3.63;3.33;;;;;;;22.17;61.86;96576.88;10421697;28;20032;-26
2023/09/11 09:47:19;;;;;;;3.65;3.10;;;;;;;22.18;61.63;96572.59;10412743;28;20033;-27
2023/09/11 09:52:22;;;;;;;4.90;3.65;;;;;;;22.16;61.55;96580.25;10436161;28;20041;-26
2023/09/11 09:57:25;;;;;;;4.07;3.67;;;;;;;22.18;61.71;96572.59;10412600;28;20025;-26
2023/09/11 10:02:29;;;;;;;3.55;3.25;;;;;;;22.18;61.73;96577.69;10422310;28;20043;-26
2023/09/11 10:07:45;;;;;;;4.57;4.18;;;;;;;22.17;61.90;96566.66;10429118;28;20045;-26
2023/09/11 10:12:46;;;;;;;3.97;3.00;;;;;;;22.18;61.82;96555.59;10414148;28;20065;-26
2023/09/11 10:17:46;;;;;;;5.00;3.53;;;;;;;22.19;61.82;96556.41;10418968;28;20073;-26
2023/09/11 10:22:46;;;;;;;4.57;3.80;;;;;;;22.18;61.79;96552.19;10422837;28;20048;-26
2023/09/11 10:27:49;;;;;;;6.05;4.07;;;;;;;22.18;61.89;96542.84;10429281;28;20380;-26
2023/09/11 10:33:09;;;;;;;5.68;4.00;;;;;;;22.18;61.81;96542.84;10422853;28;20041;-26
2023/09/11 10:38:11;;;;;;;4.80;3.40;;;;;;;22.14;61.87;96510.59;10420881;28;20094;-26
2023/09/11 10:43:13;;;;;;;3.15;2.92;;;;;;;21.99;62.40;96510.84;10430157;28;20029;-26
2023/09/11 10:48:30;;;;;;;3.15;2.85;;;;;;;22.05;62.58;96510.75;10424488;28;20025;-26
2023/09/11 10:53:31;;;;;;;2.90;2.60;;;;;;;22.04;62.13;96516.72;10432912;28;20037;-28
2023/09/11 10:58:31;;;;;;;2.65;2.42;;;;;;;22.15;61.77;96514.81;10424247;28;20090;-27
2023/09/11 11:03:34;;;;;;;2.83;2.55;;;;;;;22.15;61.72;96507.16;10409119;28;20033;-26
2023/09/11 11:08:36;;;;;;;4.88;2.35;;;;;;;22.13;61.59;96501.25;10417623;28;20041;-26
2023/09/11 11:13:38;;;;;;;6.07;2.50;;;;;;;22.16;61.79;96498.66;10411305;28;20029;-26
2023/09/11 11:18:39;;;;;;;3.03;2.80;;;;;;;22.17;61.71;96502.91;10424348;28;20057;-26
2023/09/11 11:24:00;;;;;;;2.70;2.50;;;;;;;22.17;61.87;96497.81;10429532;28;20109;-26
2023/09/11 11:29:00;;;;;;;2.85;2.55;;;;;;;22.10;61.75;96478.38;10416426;28;20485;-26
2023/09/11 11:34:01;;;;;;;2.70;2.50;;;;;;;22.17;61.82;96482.50;10420904;28;20040;-26
2023/09/11 11:39:03;;;;;;;4.07;2.30;;;;;;;22.18;61.69;96479.09;10415974;28;20021;-26
2023/09/11 11:44:04;;;;;;;5.32;2.17;;;;;;;22.18;61.73;96480.78;10407730;28;20040;-26
2023/09/11 11:49:05;;;;;;;3.83;3.03;;;;;;;22.19;62.04;96482.47;10408637;28;20032;-26
2023/09/11 11:54:05;;;;;;;3.70;2.63;;;;;;;22.18;61.92;96471.44;10410018;28;20041;-26
2023/09/11 11:59:05;;;;;;;4.05;3.13;;;;;;;22.21;62.81;96465.41;10416389;28;20454;-26
2023/09/11 12:04:06;;;;;;;8.48;3.42;;;;;;;22.21;62.21;96466.25;10419461;28;20038;-27
2023/09/11 12:09:09;;;;;;;4.57;2.77;;;;;;;22.21;62.08;96468.81;10417576;28;20109;-27
2023/09/11 12:14:17;;;;;;;4.57;2.72;;;;;;;22.21;62.22;96461.16;10416928;28;20072;-26
2023/09/11 12:19:17;;;;;;;6.38;3.78;;;;;;;22.21;62.36;96465.41;10408000;28;20036;-26
2023/09/11 12:24:22;;;;;;;4.90;3.47;;;;;;;22.19;62.30;96455.25;10416719;28;20044;-26
2023/09/11 12:29:24;;;;;;;5.07;2.90;;;;;;;22.22;62.55;96457.75;10421667;28;20029;-27
2023/09/11 12:34:25;;;;;;;3.92;2.63;;;;;;;22.21;62.38;96453.50;10416589;28;20403;-26
2023/09/11 12:39:25;;;;;;;3.38;2.80;;;;;;;22.21;62.21;96450.09;10416720;28;20030;-26
2023/09/11 12:44:25;;;;;;;6.03;2.83;;;;;;;22.21;62.21;96447.56;10421900;28;20098;-26
2023/09/11 12:49:26;;;;;;;3.60;2.90;;;;;;;22.20;62.26;96445.88;10407162;28;20025;-26
2023/09/11 12:54:31;;;;;;;7.03;4.07;;;;;;;22.18;62.39;96435.72;10424434;28;20026;-26
2023/09/11 12:59:32;;;;;;;4.53;3.00;;;;;;;22.22;62.60;96445.00;10420662;28;20021;-26
2023/09/11 13:04:33;;;;;;;3.25;2.85;;;;;;;22.24;62.62;96434.78;10428223;28;20037;-26
2023/09/11 13:09:37;;;;;;;4.60;4.20;;;;;;;22.23;62.50;96439.03;10419786;28;20033;-26
2023/09/11 13:14:38;;;;;;;6.10;3.75;;;;;;;22.25;61.99;96426.25;10430895;28;20040;-26
2023/09/11 13:19:38;;;;;;;5.77;4.00;;;;;;;22.24;62.43;96435.59;10431223;28;20487;-26
2023/09/11 13:24:39;;;;;;;6.85;4.10;;;;;;;22.24;62.72;96429.66;10420431;28;20302;-26
2023/09/11 13:29:39;;;;;;;10.10;6.20;;;;;;;22.24;62.61;96415.19;10422262;28;20037;-26
2023/09/11 13:34:39;;;;;;;8.90;7.07;;;;;;;22.25;62.59;96410.94;10414452;28;20033;-25
2023/09/11 13:39:41;;;;;;;12.20;6.37;;;;;;;22.23;62.60;96413.50;10413316;28;20037;-26
2023/09/11 13:44:41;;;;;;;21.42;6.18;;;;;;;22.26;63.66;96412.63;10431452;28;20533;-26
2023/09/11 13:49:41;;;;;;;6.97;4.90;;;;;;;22.22;63.69;96405.91;10419522;28;20040;-26
2023/09/11 13:54:44;;;;;;;6.60;4.87;;;;;;;22.26;63.84;96405.81;10416146;28;20044;-26
2023/09/11 13:59:44;;;;;;;6.43;4.82;;;;;;;22.25;64.00;96401.59;10426301;28;20474;-26
2023/09/11 14:04:45;;;;;;;9.43;4.70;;;;;;;22.24;64.05;96394.78;10422309;28;20037;-26
2023/09/11 14:09:45;;;;;;;10.77;5.93;;;;;;;22.24;63.93;96397.34;10421676;28;20033;-25
2023/09/11 14:14:45;;;;;;;6.10;4.93;;;;;;;22.22;63.99;96388.88;10413749;28;20112;-28
2023/09/11 14:19:46;;;;;;;7.33;4.37;;;;;;;22.21;63.88;96373.59;10432037;28;20033;-26
2023/09/11 14:24:46;;;;;;;7.17;5.07;;;;;;;22.24;63.79;96379.50;10414037;28;20041;-26
2023/09/11 14:29:46;;;;;;;6.67;4.93;;;;;;;22.25;63.99;96386.28;10414964;28;20037;-27
2023/09/11 14:34:47;;;;;;;6.43;4.00;;;;;;;22.23;63.86;96377.81;10409493;28;20034;-26
2023/09/11 14:39:48;;;;;;;7.77;4.53;;;;;;;22.24;64.00;96373.56;10419755;28;20288;-26
2023/09/11 14:44:51;;;;;;;7.90;4.20;;;;;;;22.24;64.09;96363.38;10422655;28;20296;-26
2023/09/11 14:49:51;;;;;;;6.20;4.50;;;;;;;22.28;64.37;96370.06;10425999;28;20128;-26
2023/09/11 14:54:52;;;;;;;7.50;4.05;;;;;;;22.24;64.14;96364.19;10414083;28;20507;-26
2023/09/11 14:59:52;;;;;;;7.97;4.40;;;;;;;22.25;63.89;96359.94;10422508;28;20028;-26
2023/09/11 15:04:53;;;;;;;9.05;4.03;;;;;;;22.24;64.06;96359.09;10409894;28;20037;-26
2023/09/11 15:09:54;;;;;;;5.57;4.15;;;;;;;22.24;63.90;96358.25;10423158;28;20048;-28
2023/09/11 15:14:54;;;;;;;7.28;4.60;;;;;;;22.24;63.85;96356.53;10410331;28;20033;-27
2023/09/11 15:19:54;;;;;;;9.43;4.13;;;;;;;22.23;63.79;96357.41;10412008;28;20036;-26
2023/09/11 15:24:55;;;;;;;6.47;4.33;;;;;;;22.24;63.78;96353.97;10411052;28;20036;-26
2023/09/11 15:29:55;;;;;;;5.80;3.80;;;;;;;22.28;63.73;96349.66;10423099;28;20133;-26
2023/09/11 15:34:55;;;;;;;14.10;4.77;;;;;;;22.29;63.83;96348.78;10412896;28;20329;-26
2023/09/11 15:39:56;;;;;;;7.80;3.60;;;;;;;22.30;63.86;96351.31;10414050;28;20045;-27
2023/09/11 15:44:56;;;;;;;7.70;4.00;;;;;;;22.32;63.71;96343.66;10412256;28;20415;-26
2023/09/11 15:49:56;;;;;;;5.90;4.03;;;;;;;22.30;63.91;96353.88;10404750;28;20041;-27
2023/09/11 15:54:57;;;;;;;9.13;3.70;;;;;;;22.30;63.80;96358.16;10414852;28;20064;-26
2023/09/11 15:59:57;;;;;;;4.10;3.20;;;;;;;22.28;63.68;96355.63;10409657;28;20029;-26
2023/09/11 16:04:57;;;;;;;7.43;4.03;;;;;;;22.23;63.67;96341.28;10405086;28;20037;-27
2023/09/11 16:09:58;;;;;;;8.50;3.90;;;;;;;22.28;63.58;96355.63;10413213;28;20120;-26
2023/09/11 16:14:58;;;;;;;8.77;3.73;;;;;;;22.27;63.52;96343.75;10414700;28;20045;-26
2023/09/11 16:19:59;;;;;;;9.77;3.73;;;;;;;22.31;63.64;96339.41;10416412;28;20087;-26
2023/09/11 16:24:59;;;;;;;5.63;3.60;;;;;;;22.29;63.63;96334.34;10421788;28;20675;-26
2023/09/11 16:29:59;;;;;;;4.33;3.30;;;;;;;22.28;63.48;96332.66;10417930;28;20500;-26
2023/09/11 16:35:00;;;;;;;14.93;4.07;;;;;;;22.35;64.50;96341.88;10409278;28;20033;-26
2023/09/11 16:40:00;;;;;;;5.73;3.00;;;;;;;22.30;63.65;96336.00;10416760;28;20118;-26
2023/09/11 16:45:00;;;;;;;5.43;3.77;;;;;;;22.30;63.61;96337.75;10419011;28;20106;-26
2023/09/11 16:50:01;;;;;;;3.37;3.07;;;;;;;22.30;63.70;96337.75;10429713;28;20045;-26
2023/09/11 16:55:02;;;;;;;4.57;3.13;;;;;;;22.28;63.56;96340.31;10410316;28;20037;-26
2023/09/11 17:00:05;;;;;;;11.13;3.60;;;;;;;22.30;63.63;96335.19;10425362;28;20060;-27
2023/09/11 17:05:08;;;;;;;4.63;2.80;;;;;;;22.29;63.55;96336.88;10417603;28;20042;-26
2023/09/11 17:10:11;;;;;;;7.63;3.65;;;;;;;22.29;63.30;96331.78;10424022;28;20068;-27
2023/09/11 17:15:11;;;;;;;8.15;3.92;;;;;;;22.28;63.35;96332.66;10418148;28;20120;-26
2023/09/11 17:20:13;;;;;;;3.95;3.10;;;;;;;22.28;63.51;96340.31;10431552;28;20504;-26
2023/09/11 17:25:13;;;;;;;8.85;3.40;;;;;;;22.28;63.49;96340.31;10419786;28;20031;-26
2023/09/11 17:30:13;;;;;;;7.00;3.77;;;;;;;22.29;63.44;96342.00;10427360;28;20049;-27
2023/09/11 17:35:14;;;;;;;9.57;3.53;;;;;;;22.26;63.69;96328.47;10427134;28;20295;-27
2023/09/11 17:40:15;;;;;;;7.67;3.23;;;;;;;22.29;63.38;96349.63;10433330;28;20063;-26
2023/09/11 17:45:15;;;;;;;10.23;3.35;;;;;;;22.34;64.22;96349.53;10417833;28;20369;-26
2023/09/11 17:50:16;;;;;;;6.43;3.23;;;;;;;22.31;63.46;96353.00;10417669;28;20043;-26
2023/09/11 17:55:17;;;;;;;7.00;3.58;;;;;;;22.31;63.43;96355.53;10438361;28;20025;-26
2023/09/11 18:00:17;;;;;;;6.43;3.23;;;;;;;22.31;63.27;96358.09;10426038;28;20031;-26
2023/09/11 18:05:17;;;;;;;5.03;3.20;;;;;;;22.30;63.61;96353.88;10421761;28;20044;-26
2023/09/11 18:10:18;;;;;;;7.90;2.75;;;;;;;22.30;63.36;96358.97;10425261;28;20300;-26
2023/09/11 18:15:18;;;;;;;3.80;3.47;;;;;;;22.27;63.35;96353.94;10428402;28;20663;-26
2023/09/11 18:20:19;;;;;;;5.40;3.00;;;;;;;22.31;63.32;96360.66;10424759;28;20025;-26
2023/09/11 18:25:20;;;;;;;4.47;3.00;;;;;;;22.29;63.26;96352.19;10421986;28;20056;-27
2023/09/11 18:30:20;;;;;;;8.45;3.20;;;;;;;22.31;63.38;96364.91;10422697;28;20087;-26
2023/09/11 18:35:21;;;;;;;9.33;3.83;;;;;;;22.32;63.54;96380.16;10421212;28;20038;-25
2023/09/11 18:40:21;;;;;;;4.93;3.80;;;;;;;22.33;63.19;96375.91;10423260;28;20017;-26
2023/09/11 18:45:21;;;;;;;5.27;3.13;;;;;;;22.32;63.31;96377.63;10416738;28;20502;-26
2023/09/11 18:50:22;;;;;;;3.67;2.33;;;;;;;22.33;63.75;96378.47;10407830;28;20568;-26
2023/09/11 18:55:22;;;;;;;3.00;2.70;;;;;;;22.33;63.61;96388.69;10410062;28;20029;-27
2023/09/11 19:00:22;;;;;;;8.67;2.93;;;;;;;22.33;63.58;96389.50;10405868;28;20044;-26
2023/09/11 19:05:25;;;;;;;3.73;2.10;;;;;;;22.33;63.52;96383.56;10413515;28;20033;-26
2023/09/11 19:10:27;;;;;;;3.70;2.35;;;;;;;22.32;63.54;96395.47;10425549;28;20417;-26
2023/09/11 19:15:27;;;;;;;4.30;2.97;;;;;;;22.32;63.45;96390.38;10411314;28;20029;-27
2023/09/11 19:20:28;;;;;;;2.97;2.35;;;;;;;22.31;63.36;96385.31;10423567;28;20115;-26
2023/09/11 19:25:28;;;;;;;2.30;2.07;;;;;;;22.29;63.41;96382.78;10431840;28;20041;-27
2023/09/11 19:30:34;;;;;;;7.60;2.57;;;;;;;22.31;63.20;96382.78;10422255;28;20299;-26
2023/09/11 19:35:35;;;;;;;;;;;;;;;22.30;65.94;96389.56;10417572;28;20036;-26
2023/09/11 19:40:36;;;;;;;7.18;3.03;;;;;;;22.32;63.47;96392.09;10422862;28;20010;-26
2023/09/11 19:45:36;;;;;;;6.07;3.90;;;;;;;22.31;63.16;96391.25;10418558;28;20025;-26
2023/09/11 19:50:37;;;;;;;10.20;3.28;;;;;;;22.29;63.19;96392.16;10416894;28;20048;-26
2023/09/11 19:55:39;;;;;;;5.20;3.07;;;;;;;22.30;63.00;96397.22;10423961;28;21190;-26
2023/09/11 20:00:39;;;;;;;9.25;2.67;;;;;;;22.31;62.94;96401.44;10424505;28;20359;-26
2023/09/11 20:05:40;;;;;;;5.80;3.00;;;;;;;22.30;63.00;96398.97;10423196;28;20406;-26
2023/09/11 20:10:40;;;;;;;8.13;3.73;;;;;;;22.31;63.00;96393.81;10431271;28;20365;-26
2023/09/11 20:15:40;;;;;;;6.63;4.07;;;;;;;22.30;62.95;96397.22;10429728;28;20403;-26
2023/09/11 20:20:41;;;;;;;6.23;3.87;;;;;;;22.32;62.82;96387.00;10411449;28;20491;-26
2023/09/11 20:25:41;;;;;;;6.23;4.80;;;;;;;22.33;62.80;96386.13;10420262;28;20030;-26
2023/09/11 20:30:42;;;;;;;5.53;4.57;;;;;;;22.32;62.81;96381.91;10423958;28;20030;-26
2023/09/11 20:35:42;;;;;;;7.50;4.80;;;;;;;22.31;62.79;96381.03;10421364;28;20029;-26
2023/09/11 20:40:43;;;;;;;4.03;3.40;;;;;;;22.30;62.81;96376.81;10420616;28;20083;-27
2023/09/11 20:45:43;;;;;;;6.37;3.67;;;;;;;22.30;62.68;96381.91;10429905;28;20527;-26
2023/09/11 20:50:43;;;;;;;4.40;3.43;;;;;;;22.30;62.67;96388.75;10426370;28;20033;-27
2023/09/11 20:55:44;;;;;;;4.30;3.43;;;;;;;22.27;62.59;96384.53;10429558;28;20033;-27
2023/09/11 21:00:44;;;;;;;6.63;3.80;;;;;;;22.28;62.60;96383.66;10423421;28;20029;-26
2023/09/11 21:05:49;;;;;;;3.13;2.43;;;;;;;22.30;62.54;96386.19;10426340;28;20033;-26
2023/09/11 21:10:49;;;;;;;5.05;3.70;;;;;;;22.31;62.60;96380.22;10414009;28;20117;-27
2023/09/11 21:15:50;;;;;;;4.17;2.80;;;;;;;22.32;62.62;96384.44;10428827;28;20116;-26
2023/09/11 21:20:50;;;;;;;3.45;3.15;;;;;;;22.30;62.50;96379.38;10427856;28;20025;-26
2023/09/11 21:25:51;;;;;;;8.40;5.27;;;;;;;22.32;62.57;96380.16;10414327;28;20044;-26
2023/09/11 21:30:51;;;;;;;5.37;4.37;;;;;;;22.32;62.52;96381.91;10421767;28;20291;-26
2023/09/11 21:35:51;;;;;;;4.60;4.10;;;;;;;22.32;62.35;96379.34;10421553;28;20033;-25
2023/09/11 21:40:53;;;;;;;5.20;4.70;;;;;;;22.30;62.42;96383.66;10421441;28;20333;-26
2023/09/11 21:45:53;;;;;;;6.28;3.58;;;;;;;22.30;62.36;96383.66;10423067;28;20412;-27
2023/09/11 21:50:54;;;;;;;7.57;5.00;;;;;;;22.30;62.34;96383.66;10421696;28;20037;-26
2023/09/11 21:55:56;;;;;;;8.07;3.07;;;;;;;22.29;62.38;96377.69;10416498;28;20029;-26
2023/09/11 22:00:57;;;;;;;4.32;3.72;;;;;;;22.29;62.23;96376.84;10426118;28;20565;-26
2023/09/11 22:05:57;;;;;;;6.97;4.33;;;;;;;22.29;62.30;96372.59;10417399;28;20036;-26
2023/09/11 22:10:58;;;;;;;6.37;4.70;;;;;;;22.29;62.30;96374.28;10411812;28;20084;-26
2023/09/11 22:15:58;;;;;;;2.58;2.38;;;;;;;22.30;62.54;96379.38;10427994;28;20043;-26
2023/09/11 22:20:58;;;;;;;3.33;2.83;;;;;;;22.34;62.28;96381.00;10416248;28;20033;-27
2023/09/11 22:25:59;;;;;;;3.97;2.60;;;;;;;22.36;62.13;96388.59;10419429;28;20029;-26
2023/09/11 22:31:00;;;;;;;2.03;1.90;;;;;;;22.38;61.97;96384.31;10416091;28;20457;-27
2023/09/11 22:36:00;;;;;;;3.25;1.90;;;;;;;22.38;62.01;96382.59;10420346;28;20514;-26
2023/09/11 22:41:00;;;;;;;2.47;2.27;;;;;;;22.38;62.03;96377.50;10431366;28;20025;-26
2023/09/11 22:46:05;;;;;;;5.40;2.27;;;;;;;22.39;62.25;96371.53;10417048;28;20029;-26
2023/09/11 22:51:05;;;;;;;3.75;2.60;;;;;;;22.38;61.95;96372.41;10419912;28;20785;-26
2023/09/11 22:56:06;;;;;;;2.30;2.15;;;;;;;22.39;61.84;96368.16;10420242;28;20040;-26
2023/09/11 23:01:17;;;;;;;3.50;2.43;;;;;;;22.38;61.89;96351.13;10430338;28;20029;-26
2023/09/11 23:06:18;;;;;;;4.63;2.65;;;;;;;22.38;62.07;96358.78;10424601;28;20112;-27
2023/09/11 23:11:18;;;;;;;2.70;2.27;;;;;;;22.37;61.87;96355.41;10410104;28;20038;-26
2023/09/11 23:16:18;;;;;;;2.80;2.27;;;;;;;22.36;61.83;96353.75;10429245;28;20040;-26
2023/09/11 23:21:19;;;;;;;2.37;2.17;;;;;;;22.37;61.83;96355.41;10412420;28;20040;-26